Schefferville, Canada
Current Conditions -  °F | °C
As of 8:00 PM on Saturday 25 Oct 2014 (Local Time) from CYWK Reporting Station
Overcast Overcast  
Wind Chill: 28°   Ceiling: 18000
Heat Index: 34°   Visibility: 15mi
Dew Point: 30°   Wind: 7mph
Humidity: 87%   Direction: 130°SE
Pressure: 29.6"   Gusts: NA
Location:  54.8°N, 66.83°W
Report Text: CYWK 260000Z 13006KT 15SM SCT016 OVC180 01/M01 A2960 RMK SC4AC4 SLP050
Loading
Personal Weather Stations






























Interactive Weather Map New forecast layout! Learn more

10-Day Weather Forecast

Advertisements
Track Severe Weather on mobile